Terminal Aerodrome Forecast
Issued by NWS

Home | Current Version | Previous Version | Text Only | Print | Product List | Glossary On
Versions: 1 2 3 4 5 6 7 8 9 10 11 12 13 14 15 16
602
FTUS44 KBMX 202339
TAFTCL
TAF
KTCL 202339Z 2100/2124 00000KT P6SM VCSH SCT050
      TEMPO 2100/2101 VRB10G18KT TSRA SCT050CB BKN100
     FM210100 00000KT P6SM SCT100
     FM210700 00000KT 6SM BR SKC
     FM211400 12005KT P6SM FEW040=

USA.gov is the U.S. government's official web portal to all federal, state and local government web resources and services.